Time;durP1;ratioP1;P1;durP2;ratioP2;P2;SDS_P1;SDS_P2;PMS_P1;PMS_P2;Temp;Humidity;BMP_temperature;BMP_pressure;BME280_temperature;BME280_humidity;BME280_pressure;Samples;Min_cycle;Max_cycle;Signal;HPM_P1;HPM_P2
2024/03/31 00:01:07;;;;;;;43.78;7.88;;;;;;;;;;5069369;28;20040;-70
2024/03/31 00:03:35;;;;;;;43.45;9.02;;;;;;;;;;5081558;28;20439;-70
2024/03/31 00:06:01;;;;;;;29.88;7.82;;;;;;;;;;5071954;28;20020;-69
2024/03/31 00:08:26;;;;;;;36.70;7.50;;;;;;;;;;5088831;28;20428;-68
2024/03/31 00:11:00;;;;;;;41.50;7.25;;;;;;;;;;5073431;28;20024;-69
2024/03/31 00:13:29;;;;;;;36.42;8.18;;;;;;;;;;5054322;28;20071;-69
2024/03/31 00:15:55;;;;;;;36.08;8.13;;;;;;;;;;5075875;28;20024;-69
2024/03/31 00:18:21;;;;;;;36.38;8.10;;;;;;;;;;5074957;28;20029;-69
2024/03/31 00:20:55;;;;;;;41.88;8.10;;;;;;;;;;5056505;28;20401;-69
2024/03/31 00:23:22;;;;;;;38.35;7.80;;;;;;;;;;5073507;28;20059;-70
2024/03/31 00:25:58;;;;;;;36.47;7.50;;;;;;;;;;5056251;28;20601;-69
2024/03/31 00:28:24;;;;;;;32.38;6.70;;;;;;;;;;5055771;28;20066;-69
2024/03/31 00:30:57;;;;;;;37.65;7.50;;;;;;;;;;5074198;28;20028;-68
2024/03/31 00:33:26;;;;;;;30.17;7.25;;;;;;;;;;5056059;28;20063;-68
2024/03/31 00:35:56;;;;;;;35.08;7.63;;;;;;;;;;5039445;28;20037;-71
2024/03/31 00:38:23;;;;;;;34.67;7.72;;;;;;;;;;5074566;28;20491;-69
2024/03/31 00:40:49;;;;;;;47.90;6.72;;;;;;;;;;5075494;28;20034;-69
2024/03/31 00:43:16;;;;;;;36.53;7.32;;;;;;;;;;5075581;28;20111;-68
2024/03/31 00:45:42;;;;;;;36.45;7.53;;;;;;;;;;5057565;28;20556;-70
2024/03/31 00:48:07;;;;;;;42.38;7.80;;;;;;;;;;5067136;28;20051;-68
2024/03/31 00:50:35;;;;;;;33.95;6.93;;;;;;;;;;5075576;28;20051;-68
2024/03/31 00:53:01;;;;;;;35.00;7.65;;;;;;;;;;5093493;28;20028;-71
2024/03/31 00:55:27;;;;;;;35.80;8.50;;;;;;;;;;5075100;28;20024;-70
2024/03/31 00:57:52;;;;;;;52.55;8.00;;;;;;;;;;5093306;28;20666;-70
2024/03/31 01:00:18;;;;;;;36.72;6.68;;;;;;;;;;5074778;28;20027;-69
2024/03/31 01:02:44;;;;;;;34.00;8.88;;;;;;;;;;5074717;28;20361;-71
2024/03/31 01:05:10;;;;;;;44.22;8.38;;;;;;;;;;5075066;28;20035;-72
2024/03/31 01:07:36;;;;;;;34.13;8.52;;;;;;;;;;5041737;28;20606;-70
2024/03/31 01:10:02;;;;;;;33.72;7.20;;;;;;;;;;5074847;28;20047;-70
2024/03/31 01:12:27;;;;;;;42.70;7.28;;;;;;;;;;5092986;28;20060;-68
2024/03/31 01:14:53;;;;;;;33.90;6.72;;;;;;;;;;5074886;28;20090;-69
2024/03/31 01:17:19;;;;;;;37.90;8.25;;;;;;;;;;5093036;28;20085;-68
2024/03/31 01:19:44;;;;;;;31.45;7.20;;;;;;;;;;5093116;28;20059;-71
2024/03/31 01:22:11;;;;;;;45.47;7.47;;;;;;;;;;5074926;28;20036;-71
2024/03/31 01:24:37;;;;;;;34.92;7.57;;;;;;;;;;5074272;28;20154;-69
2024/03/31 01:27:04;;;;;;;36.60;8.73;;;;;;;;;;5092864;28;20024;-69
2024/03/31 01:29:30;;;;;;;39.03;7.43;;;;;;;;;;5092831;28;20487;-69
2024/03/31 01:31:55;;;;;;;30.83;7.22;;;;;;;;;;5092508;28;20024;-70
2024/03/31 01:34:21;;;;;;;37.25;7.15;;;;;;;;;;5092647;28;20031;-70
2024/03/31 01:36:46;;;;;;;37.50;7.07;;;;;;;;;;5074702;28;20038;-68
2024/03/31 01:39:14;;;;;;;34.97;7.03;;;;;;;;;;5075026;28;20086;-69
2024/03/31 01:41:40;;;;;;;35.03;7.13;;;;;;;;;;5076188;28;20044;-69
2024/03/31 01:44:06;;;;;;;36.10;7.00;;;;;;;;;;5094408;28;20024;-68
2024/03/31 01:46:31;;;;;;;34.10;7.43;;;;;;;;;;5093892;28;20443;-70
2024/03/31 01:48:57;;;;;;;36.72;6.70;;;;;;;;;;5093825;28;20061;-70
2024/03/31 01:51:22;;;;;;;36.70;7.00;;;;;;;;;;5075804;28;20036;-69
2024/03/31 01:53:48;;;;;;;30.05;6.00;;;;;;;;;;5075376;28;20032;-68
2024/03/31 01:56:13;;;;;;;40.35;7.88;;;;;;;;;;5074073;28;20039;-69
2024/03/31 01:58:40;;;;;;;47.47;6.90;;;;;;;;;;5092553;28;20058;-69
2024/03/31 02:01:05;;;;;;;32.15;8.73;;;;;;;;;;5074281;28;20043;-69
2024/03/31 02:03:31;;;;;;;39.95;8.10;;;;;;;;;;5073201;28;20032;-69
2024/03/31 02:05:56;;;;;;;43.47;9.18;;;;;;;;;;5073613;28;20028;-68
2024/03/31 02:08:22;;;;;;;40.45;7.90;;;;;;;;;;5073335;28;20035;-69
2024/03/31 02:10:47;;;;;;;39.42;7.63;;;;;;;;;;5091608;28;20480;-68
2024/03/31 02:13:12;;;;;;;35.03;9.68;;;;;;;;;;5091522;28;20090;-71
2024/03/31 02:15:38;;;;;;;41.60;8.20;;;;;;;;;;5053080;28;20034;-70
2024/03/31 02:18:04;;;;;;;43.83;7.85;;;;;;;;;;5053259;28;20043;-68
2024/03/31 02:20:29;;;;;;;32.20;7.25;;;;;;;;;;5070887;28;20028;-69
2024/03/31 02:22:55;;;;;;;41.88;7.57;;;;;;;;;;5071143;28;20121;-69
2024/03/31 02:25:20;;;;;;;41.58;7.93;;;;;;;;;;5070598;28;20030;-67
2024/03/31 02:27:46;;;;;;;38.85;8.25;;;;;;;;;;5052732;28;20111;-68
2024/03/31 02:30:13;;;;;;;39.92;7.45;;;;;;;;;;5052746;28;20381;-67
2024/03/31 02:32:38;;;;;;;47.90;8.55;;;;;;;;;;5070589;28;20035;-69
2024/03/31 02:35:04;;;;;;;46.22;7.80;;;;;;;;;;5070667;28;20036;-69
2024/03/31 02:37:29;;;;;;;38.78;7.75;;;;;;;;;;5052489;28;20028;-69
2024/03/31 02:39:55;;;;;;;50.92;9.45;;;;;;;;;;5070658;28;20028;-69
2024/03/31 02:42:20;;;;;;;35.85;7.50;;;;;;;;;;5052320;28;20032;-69
2024/03/31 02:44:46;;;;;;;45.85;8.23;;;;;;;;;;5070700;28;20024;-69
2024/03/31 02:47:11;;;;;;;58.67;8.27;;;;;;;;;;5073099;28;20429;-68
2024/03/31 02:49:37;;;;;;;42.13;8.57;;;;;;;;;;5090464;28;20040;-70
2024/03/31 02:52:03;;;;;;;44.05;7.93;;;;;;;;;;5090772;28;20031;-69
2024/03/31 02:54:28;;;;;;;30.63;7.32;;;;;;;;;;5090568;28;20035;-67
2024/03/31 02:56:54;;;;;;;38.03;6.63;;;;;;;;;;5105810;28;20080;-70
2024/03/31 02:59:19;;;;;;;30.15;6.93;;;;;;;;;;5092901;28;20027;-69
2024/03/31 03:01:44;;;;;;;38.75;8.70;;;;;;;;;;5111585;28;20042;-69
2024/03/31 03:04:10;;;;;;;53.83;8.38;;;;;;;;;;5111932;28;20123;-69
2024/03/31 03:06:36;;;;;;;36.22;8.07;;;;;;;;;;5112181;28;20034;-70
2024/03/31 03:09:03;;;;;;;47.08;8.02;;;;;;;;;;5094013;28;20023;-69
2024/03/31 03:11:28;;;;;;;35.03;8.55;;;;;;;;;;5093655;28;20063;-69
2024/03/31 03:13:54;;;;;;;35.42;7.78;;;;;;;;;;5113067;28;20104;-68
2024/03/31 03:16:19;;;;;;;42.33;7.97;;;;;;;;;;5111677;28;20712;-68
2024/03/31 03:18:45;;;;;;;46.22;9.88;;;;;;;;;;5093926;28;20048;-68
2024/03/31 03:21:11;;;;;;;31.35;8.27;;;;;;;;;;5094326;28;20122;-70
2024/03/31 03:23:36;;;;;;;37.10;8.25;;;;;;;;;;5112235;28;20107;-68
2024/03/31 03:26:02;;;;;;;38.70;9.52;;;;;;;;;;5093669;28;20023;-67
2024/03/31 03:28:27;;;;;;;35.72;9.43;;;;;;;;;;5093521;28;20027;-68
2024/03/31 03:30:53;;;;;;;42.15;10.60;;;;;;;;;;5093528;28;20806;-69
2024/03/31 03:33:20;;;;;;;47.33;11.02;;;;;;;;;;5093034;28;20059;-69
2024/03/31 03:35:47;;;;;;;57.20;12.45;;;;;;;;;;5111538;28;20031;-69
2024/03/31 03:38:13;;;;;;;42.95;10.15;;;;;;;;;;5093480;28;20032;-69
2024/03/31 03:40:38;;;;;;;50.30;11.43;;;;;;;;;;5092604;28;20028;-67
2024/03/31 03:43:04;;;;;;;51.42;11.75;;;;;;;;;;5092551;28;20035;-68
2024/03/31 03:45:29;;;;;;;44.17;12.18;;;;;;;;;;5110395;28;20023;-68
2024/03/31 03:47:55;;;;;;;51.22;12.30;;;;;;;;;;5103932;28;20085;-70
2024/03/31 03:50:20;;;;;;;45.00;11.07;;;;;;;;;;5094235;28;20039;-68
2024/03/31 03:52:46;;;;;;;54.65;11.77;;;;;;;;;;5076093;28;20064;-68
2024/03/31 03:55:11;;;;;;;51.33;12.55;;;;;;;;;;5076171;28;20028;-68
2024/03/31 03:57:37;;;;;;;53.80;13.60;;;;;;;;;;5075880;28;20032;-70
2024/03/31 04:00:04;;;;;;;49.58;10.48;;;;;;;;;;5075835;28;20036;-67
2024/03/31 04:02:31;;;;;;;48.75;11.15;;;;;;;;;;5075906;28;20032;-68
2024/03/31 04:04:56;;;;;;;47.13;10.93;;;;;;;;;;5094123;28;20352;-68
2024/03/31 04:07:22;;;;;;;57.83;11.20;;;;;;;;;;5094138;28;20028;-69
2024/03/31 04:09:47;;;;;;;46.28;10.15;;;;;;;;;;5094264;28;20024;-66
2024/03/31 04:12:13;;;;;;;47.17;10.80;;;;;;;;;;5075672;28;20032;-68
2024/03/31 04:14:39;;;;;;;46.17;10.80;;;;;;;;;;5093825;28;20063;-68
2024/03/31 04:17:05;;;;;;;40.97;9.93;;;;;;;;;;5093709;28;20476;-70
2024/03/31 04:19:30;;;;;;;59.45;9.93;;;;;;;;;;5075374;28;20755;-68
2024/03/31 04:21:56;;;;;;;49.63;11.35;;;;;;;;;;5093631;28;20024;-69
2024/03/31 04:24:21;;;;;;;45.50;9.68;;;;;;;;;;5075456;28;20448;-69
2024/03/31 04:26:47;;;;;;;53.35;11.18;;;;;;;;;;5075560;28;20519;-68
2024/03/31 04:29:13;;;;;;;44.88;11.63;;;;;;;;;;5093571;28;20107;-68
2024/03/31 04:31:55;;;;;;;35.05;8.43;;;;;;;;;;5093518;28;20387;-68
2024/03/31 04:34:21;;;;;;;33.83;7.38;;;;;;;;;;5075170;28;20068;-69
2024/03/31 04:36:49;;;;;;;31.13;8.02;;;;;;;;;;5093307;28;20059;-68
2024/03/31 04:39:15;;;;;;;40.58;8.38;;;;;;;;;;5075076;28;20024;-69
2024/03/31 04:41:41;;;;;;;34.90;8.70;;;;;;;;;;5074769;28;20035;-69
2024/03/31 04:44:06;;;;;;;34.78;7.55;;;;;;;;;;5093253;28;20028;-69
2024/03/31 04:46:32;;;;;;;40.78;8.85;;;;;;;;;;5074857;28;20045;-70
2024/03/31 04:48:57;;;;;;;32.47;7.30;;;;;;;;;;5092999;28;20499;-69
2024/03/31 04:51:23;;;;;;;41.38;7.47;;;;;;;;;;5077653;28;20385;-67
2024/03/31 04:53:48;;;;;;;49.25;9.18;;;;;;;;;;5054874;28;20036;-68
2024/03/31 04:56:14;;;;;;;34.05;6.82;;;;;;;;;;5073229;28;20449;-69
2024/03/31 04:58:39;;;;;;;41.00;8.35;;;;;;;;;;5071945;28;20036;-67
2024/03/31 05:01:05;;;;;;;36.60;7.18;;;;;;;;;;5074564;28;20037;-68
2024/03/31 05:03:30;;;;;;;30.80;6.93;;;;;;;;;;5075953;28;20658;-69
2024/03/31 05:05:56;;;;;;;33.05;7.65;;;;;;;;;;5057817;28;20032;-69
2024/03/31 05:08:21;;;;;;;27.08;8.13;;;;;;;;;;5075002;28;20371;-68
2024/03/31 05:10:53;;;;;;;36.35;7.63;;;;;;;;;;5072734;28;20033;-71
2024/03/31 05:13:18;;;;;;;35.75;7.28;;;;;;;;;;5071358;28;20518;-68
2024/03/31 05:15:44;;;;;;;38.15;8.15;;;;;;;;;;5054095;28;20032;-69
2024/03/31 05:18:09;;;;;;;28.27;8.73;;;;;;;;;;5071185;28;20024;-68
2024/03/31 05:20:35;;;;;;;36.28;7.85;;;;;;;;;;5070765;28;20034;-70
2024/03/31 05:23:00;;;;;;;32.17;7.25;;;;;;;;;;5054444;28;20078;-68
2024/03/31 05:25:26;;;;;;;38.97;10.27;;;;;;;;;;5084630;28;20051;-68
2024/03/31 05:27:51;;;;;;;38.53;8.10;;;;;;;;;;5074377;28;20379;-69
2024/03/31 05:30:17;;;;;;;40.97;8.70;;;;;;;;;;5074163;28;20039;-71
2024/03/31 05:32:42;;;;;;;42.95;9.55;;;;;;;;;;5092075;28;20035;-69
2024/03/31 05:35:08;;;;;;;33.28;8.05;;;;;;;;;;5092482;28;20051;-68
2024/03/31 05:37:34;;;;;;;33.95;8.48;;;;;;;;;;5074205;28;20028;-68
2024/03/31 05:40:00;;;;;;;36.42;7.93;;;;;;;;;;5074454;28;20023;-68
2024/03/31 05:42:25;;;;;;;45.35;9.85;;;;;;;;;;5074223;28;20028;-67
2024/03/31 05:44:51;;;;;;;43.03;9.85;;;;;;;;;;5092224;28;20031;-69
2024/03/31 05:47:17;;;;;;;48.30;9.45;;;;;;;;;;5091800;28;20049;-70
2024/03/31 05:49:43;;;;;;;42.53;9.02;;;;;;;;;;5056586;28;20483;-69
2024/03/31 05:52:09;;;;;;;47.53;8.73;;;;;;;;;;5073693;28;20395;-70
2024/03/31 05:54:34;;;;;;;47.30;9.50;;;;;;;;;;5073422;28;20032;-69
2024/03/31 05:57:00;;;;;;;39.83;10.18;;;;;;;;;;5091643;28;20093;-68
2024/03/31 05:59:25;;;;;;;46.50;9.45;;;;;;;;;;5072996;28;20115;-73
2024/03/31 06:01:52;;;;;;;47.78;9.30;;;;;;;;;;5056754;28;20027;-69
2024/03/31 06:04:17;;;;;;;52.95;9.60;;;;;;;;;;5091641;28;20027;-72
2024/03/31 06:06:43;;;;;;;45.92;8.15;;;;;;;;;;5091545;28;20468;-69
2024/03/31 06:09:08;;;;;;;48.72;10.60;;;;;;;;;;5091794;28;20028;-70
2024/03/31 06:11:34;;;;;;;50.00;10.23;;;;;;;;;;5072711;28;20030;-69
2024/03/31 06:13:59;;;;;;;55.95;11.52;;;;;;;;;;5073396;28;20431;-68
2024/03/31 06:16:25;;;;;;;45.50;9.10;;;;;;;;;;5091506;28;20060;-68
2024/03/31 06:18:50;;;;;;;38.95;8.45;;;;;;;;;;5073455;28;20020;-68
2024/03/31 06:21:16;;;;;;;39.90;8.57;;;;;;;;;;5091531;28;20621;-69
2024/03/31 06:23:42;;;;;;;51.85;9.98;;;;;;;;;;5091303;28;20050;-68
2024/03/31 06:26:07;;;;;;;39.17;10.02;;;;;;;;;;5072641;28;20028;-69
2024/03/31 06:28:33;;;;;;;46.40;10.75;;;;;;;;;;5072796;28;20024;-71
2024/03/31 06:30:59;;;;;;;49.22;10.32;;;;;;;;;;5090903;28;20032;-70
2024/03/31 06:33:24;;;;;;;32.15;9.68;;;;;;;;;;5073097;28;20581;-69
2024/03/31 06:35:49;;;;;;;55.80;9.48;;;;;;;;;;5072638;28;20024;-69
2024/03/31 06:38:16;;;;;;;39.33;7.20;;;;;;;;;;5091067;28;20050;-69
2024/03/31 06:40:42;;;;;;;50.13;8.45;;;;;;;;;;5090804;28;20028;-70
2024/03/31 06:43:07;;;;;;;40.10;7.53;;;;;;;;;;5091103;28;20028;-70
2024/03/31 06:45:33;;;;;;;39.22;7.40;;;;;;;;;;5090729;28;20055;-69
2024/03/31 06:47:58;;;;;;;42.17;6.22;;;;;;;;;;5090810;28;20629;-69
2024/03/31 06:50:24;;;;;;;35.05;8.02;;;;;;;;;;5072466;28;20374;-68
2024/03/31 06:52:50;;;;;;;45.67;6.85;;;;;;;;;;5072229;28;20027;-69
2024/03/31 06:55:16;;;;;;;33.72;6.80;;;;;;;;;;5090479;28;20048;-69
2024/03/31 06:57:42;;;;;;;50.13;6.45;;;;;;;;;;5090345;28;20023;-69
2024/03/31 07:00:09;;;;;;;30.42;7.57;;;;;;;;;;5072115;28;20036;-69
2024/03/31 07:02:34;;;;;;;29.13;6.18;;;;;;;;;;5072291;28;20034;-68
2024/03/31 07:05:00;;;;;;;43.22;7.60;;;;;;;;;;5089789;28;20028;-69
2024/03/31 07:07:25;;;;;;;45.35;6.63;;;;;;;;;;5090241;28;20020;-69
2024/03/31 07:09:51;;;;;;;37.22;6.25;;;;;;;;;;5089836;28;20050;-70
2024/03/31 07:12:16;;;;;;;41.90;5.65;;;;;;;;;;5090019;28;20027;-69
2024/03/31 07:14:42;;;;;;;37.25;6.25;;;;;;;;;;5089859;28;20431;-71
2024/03/31 07:17:07;;;;;;;39.70;6.82;;;;;;;;;;5072248;28;20025;-69
2024/03/31 07:19:33;;;;;;;26.10;6.13;;;;;;;;;;5089853;28;20036;-69
2024/03/31 07:21:58;;;;;;;44.80;6.80;;;;;;;;;;5088896;28;20537;-70
2024/03/31 07:24:24;;;;;;;38.97;6.70;;;;;;;;;;5089414;28;20103;-69
2024/03/31 07:26:49;;;;;;;39.20;5.30;;;;;;;;;;5070802;28;20506;-71
2024/03/31 07:29:15;;;;;;;34.05;6.70;;;;;;;;;;5071084;28;20046;-70
2024/03/31 07:31:40;;;;;;;47.03;6.43;;;;;;;;;;5070834;28;20044;-70
2024/03/31 07:34:06;;;;;;;40.13;6.63;;;;;;;;;;5089622;28;20028;-68
2024/03/31 07:36:33;;;;;;;41.17;6.43;;;;;;;;;;5070792;28;20085;-69
2024/03/31 07:38:58;;;;;;;42.40;7.03;;;;;;;;;;5071296;28;20055;-69
2024/03/31 07:41:24;;;;;;;37.15;6.25;;;;;;;;;;5071463;28;20070;-69
2024/03/31 07:43:49;;;;;;;28.25;5.47;;;;;;;;;;5071446;28;20028;-70
2024/03/31 07:46:15;;;;;;;33.47;5.93;;;;;;;;;;5071479;28;20120;-69
2024/03/31 07:48:40;;;;;;;44.42;6.30;;;;;;;;;;5071163;28;20028;-70
2024/03/31 07:51:06;;;;;;;41.40;7.07;;;;;;;;;;5071204;28;20085;-71
2024/03/31 07:53:31;;;;;;;38.08;5.57;;;;;;;;;;5089575;28;20103;-71
2024/03/31 07:56:01;;;;;;;27.70;4.65;;;;;;;;;;5090148;28;20081;-69
2024/03/31 07:58:27;;;;;;;43.47;6.15;;;;;;;;;;5089860;28;20042;-70
2024/03/31 08:00:55;;;;;;;58.33;14.23;;;;;;;;;;5089530;28;20039;-70
2024/03/31 08:03:21;;;;;;;43.70;6.63;;;;;;;;;;5089695;28;20027;-70
2024/03/31 08:05:46;;;;;;;34.53;6.82;;;;;;;;;;5090037;28;20328;-69
2024/03/31 08:08:12;;;;;;;42.30;6.28;;;;;;;;;;5071954;28;20054;-68
2024/03/31 08:10:38;;;;;;;37.05;5.72;;;;;;;;;;5089674;28;20043;-69
2024/03/31 08:13:05;;;;;;;34.95;5.35;;;;;;;;;;5072107;28;20028;-70
2024/03/31 08:15:31;;;;;;;37.42;5.70;;;;;;;;;;5072148;28;20020;-69
2024/03/31 08:17:56;;;;;;;50.45;6.65;;;;;;;;;;5089844;28;20435;-70
2024/03/31 08:20:22;;;;;;;37.83;5.75;;;;;;;;;;5090245;28;20115;-71
2024/03/31 08:22:47;;;;;;;46.20;6.63;;;;;;;;;;5089448;28;20028;-70
2024/03/31 08:25:13;;;;;;;41.50;6.82;;;;;;;;;;5071327;28;20036;-72
2024/03/31 08:27:38;;;;;;;33.75;5.82;;;;;;;;;;5088865;28;20062;-70
2024/03/31 08:30:04;;;;;;;40.53;5.70;;;;;;;;;;5071071;28;20058;-70
2024/03/31 08:32:30;;;;;;;37.50;6.55;;;;;;;;;;5089233;28;20518;-69
2024/03/31 08:34:55;;;;;;;39.78;5.47;;;;;;;;;;5073950;28;20023;-71
2024/03/31 08:37:21;;;;;;;47.70;6.35;;;;;;;;;;5074726;28;20072;-70
2024/03/31 08:39:46;;;;;;;37.13;7.20;;;;;;;;;;5074455;28;20032;-71
2024/03/31 08:42:22;;;;;;;43.33;5.03;;;;;;;;;;5092712;28;20093;-71
2024/03/31 08:44:51;;;;;;;42.33;4.88;;;;;;;;;;5074610;28;20024;-69
2024/03/31 08:47:26;;;;;;;41.13;6.25;;;;;;;;;;5074589;28;20020;-70
2024/03/31 08:49:54;;;;;;;28.45;5.00;;;;;;;;;;5074535;28;20115;-71
2024/03/31 08:52:20;;;;;;;32.25;5.60;;;;;;;;;;5092574;28;20479;-71
2024/03/31 08:54:47;;;;;;;32.42;5.25;;;;;;;;;;5092756;28;20028;-70
2024/03/31 08:57:13;;;;;;;54.53;6.90;;;;;;;;;;5074332;28;20036;-70
2024/03/31 08:59:38;;;;;;;43.30;5.90;;;;;;;;;;5092733;28;20036;-71
2024/03/31 09:02:05;;;;;;;39.35;6.55;;;;;;;;;;5092842;28;20107;-71
2024/03/31 09:04:31;;;;;;;44.65;4.65;;;;;;;;;;5074765;28;20104;-70
2024/03/31 09:06:57;;;;;;;34.33;5.00;;;;;;;;;;5092678;28;20020;-69
2024/03/31 09:09:23;;;;;;;55.65;8.52;;;;;;;;;;5074791;28;20042;-70
2024/03/31 09:11:49;;;;;;;39.42;5.80;;;;;;;;;;5073881;28;20023;-68
2024/03/31 09:14:15;;;;;;;44.70;6.57;;;;;;;;;;5074475;28;20035;-71
2024/03/31 09:16:47;;;;;;;46.15;7.07;;;;;;;;;;5075387;28;20031;-70
2024/03/31 09:19:14;;;;;;;38.30;4.70;;;;;;;;;;5094204;28;20032;-70
2024/03/31 09:21:47;;;;;;;35.13;7.45;;;;;;;;;;5075181;28;20023;-69
2024/03/31 09:24:13;;;;;;;43.65;6.70;;;;;;;;;;5074414;28;20028;-68
2024/03/31 09:26:40;;;;;;;41.38;5.47;;;;;;;;;;5091998;28;20077;-71
2024/03/31 09:29:06;;;;;;;55.92;6.60;;;;;;;;;;5092274;28;20499;-70
2024/03/31 09:31:32;;;;;;;45.05;6.40;;;;;;;;;;5074214;28;20028;-72
2024/03/31 09:33:58;;;;;;;52.72;5.57;;;;;;;;;;5092450;28;20024;-70
2024/03/31 09:36:25;;;;;;;55.85;7.25;;;;;;;;;;5092638;28;20028;-70
2024/03/31 09:38:50;;;;;;;62.08;6.07;;;;;;;;;;5074017;28;20074;-70
2024/03/31 09:41:17;;;;;;;38.80;5.78;;;;;;;;;;5073847;28;20032;-71
2024/03/31 09:43:43;;;;;;;46.92;7.82;;;;;;;;;;5092300;28;20032;-69
2024/03/31 09:46:09;;;;;;;64.68;6.55;;;;;;;;;;5093013;28;20024;-68
2024/03/31 09:48:39;;;;;;;43.67;6.03;;;;;;;;;;5093104;28;20563;-70
2024/03/31 09:51:13;;;;;;;43.70;6.15;;;;;;;;;;5075286;28;20024;-69
2024/03/31 09:53:44;;;;;;;39.65;5.97;;;;;;;;;;5074448;28;20032;-69
2024/03/31 09:56:15;;;;;;;39.80;5.57;;;;;;;;;;5092795;28;20355;-68
2024/03/31 09:58:43;;;;;;;42.53;4.78;;;;;;;;;;5092117;28;20023;-69
2024/03/31 10:01:11;;;;;;;44.30;5.80;;;;;;;;;;5091318;28;20163;-69
2024/03/31 10:03:42;;;;;;;54.45;6.78;;;;;;;;;;5072975;28;20047;-71
2024/03/31 10:06:08;;;;;;;53.72;6.93;;;;;;;;;;5091048;28;20538;-68
2024/03/31 10:08:34;;;;;;;37.83;6.30;;;;;;;;;;5091275;28;20047;-69
2024/03/31 10:11:01;;;;;;;66.53;6.70;;;;;;;;;;5091442;28;20020;-67
2024/03/31 10:13:28;;;;;;;42.47;6.82;;;;;;;;;;5072989;28;20047;-68
2024/03/31 10:15:57;;;;;;;53.55;6.82;;;;;;;;;;5072140;28;20028;-69
2024/03/31 10:18:26;;;;;;;42.92;7.03;;;;;;;;;;5090714;28;20380;-69
2024/03/31 10:20:53;;;;;;;43.80;5.85;;;;;;;;;;5090742;28;20020;-70
2024/03/31 10:23:19;;;;;;;36.20;6.13;;;;;;;;;;5090967;28;20503;-68
2024/03/31 10:25:46;;;;;;;42.05;5.88;;;;;;;;;;5072498;28;20474;-70
2024/03/31 10:28:13;;;;;;;36.78;5.95;;;;;;;;;;5072778;28;20369;-69
2024/03/31 10:30:39;;;;;;;45.42;5.28;;;;;;;;;;5072541;28;20040;-69
2024/03/31 10:33:04;;;;;;;43.47;6.93;;;;;;;;;;5090605;28;20465;-69
2024/03/31 10:35:32;;;;;;;49.00;7.50;;;;;;;;;;5072281;28;20422;-70
2024/03/31 10:37:58;;;;;;;51.58;6.35;;;;;;;;;;5072041;28;20460;-71
2024/03/31 10:40:26;;;;;;;39.72;6.65;;;;;;;;;;5072570;28;20030;-71
2024/03/31 10:42:56;;;;;;;51.88;5.32;;;;;;;;;;5072266;28;20768;-70
2024/03/31 10:45:22;;;;;;;55.03;6.88;;;;;;;;;;5090728;28;20024;-69
2024/03/31 10:47:50;;;;;;;60.20;8.43;;;;;;;;;;5090414;28;20020;-71
2024/03/31 10:50:15;;;;;;;52.35;6.38;;;;;;;;;;5072773;28;20032;-70
2024/03/31 10:52:41;;;;;;;54.13;12.13;;;;;;;;;;5090408;28;20047;-70
2024/03/31 10:55:08;;;;;;;61.67;7.75;;;;;;;;;;5068590;28;20123;-69
2024/03/31 10:57:37;;;;;;;45.92;6.50;;;;;;;;;;5067894;28;20147;-68
2024/03/31 11:00:06;;;;;;;44.63;6.10;;;;;;;;;;5068473;28;20098;-70
2024/03/31 11:02:34;;;;;;;47.80;5.55;;;;;;;;;;5069945;28;20032;-69
2024/03/31 11:05:04;;;;;;;50.90;6.72;;;;;;;;;;5068352;28;20024;-70
2024/03/31 11:07:51;;;;;;;39.03;6.30;;;;;;;;;;5069958;28;20036;-70
2024/03/31 11:10:19;;;;;;;57.10;6.90;;;;;;;;;;5069698;28;20040;-69
2024/03/31 11:12:46;;;;;;;47.55;7.50;;;;;;;;;;5070095;28;20032;-69
2024/03/31 11:15:13;;;;;;;52.28;5.78;;;;;;;;;;5068619;28;20033;-69
2024/03/31 11:17:40;;;;;;;52.47;7.82;;;;;;;;;;5068981;28;20020;-71
2024/03/31 11:20:08;;;;;;;56.90;7.55;;;;;;;;;;5070174;28;20738;-71
2024/03/31 11:22:34;;;;;;;49.33;7.05;;;;;;;;;;5068796;28;20032;-70
2024/03/31 11:25:03;;;;;;;57.83;6.97;;;;;;;;;;5069796;28;20032;-72
2024/03/31 11:27:29;;;;;;;60.55;7.88;;;;;;;;;;5068493;28;20025;-71
2024/03/31 11:29:55;;;;;;;61.33;7.35;;;;;;;;;;5068211;28;20035;-69
2024/03/31 11:32:21;;;;;;;54.03;7.70;;;;;;;;;;5068231;28;20025;-71
2024/03/31 11:34:46;;;;;;;46.50;5.70;;;;;;;;;;5068147;28;20025;-71
2024/03/31 11:37:12;;;;;;;37.53;6.93;;;;;;;;;;5069662;28;20101;-71
2024/03/31 11:39:38;;;;;;;52.92;6.80;;;;;;;;;;5069395;28;20043;-70
2024/03/31 11:42:04;;;;;;;54.40;7.03;;;;;;;;;;5069416;28;20021;-69
2024/03/31 11:44:35;;;;;;;56.40;6.65;;;;;;;;;;5051802;28;20573;-67
2024/03/31 11:47:01;;;;;;;56.00;8.05;;;;;;;;;;5068944;28;20491;-70
2024/03/31 11:49:28;;;;;;;54.00;6.22;;;;;;;;;;5071630;28;20024;-71
2024/03/31 11:51:54;;;;;;;52.03;8.00;;;;;;;;;;5089349;28;20024;-70
2024/03/31 11:54:20;;;;;;;59.70;7.40;;;;;;;;;;5089536;28;20036;-70
2024/03/31 11:56:45;;;;;;;53.25;7.75;;;;;;;;;;5089321;28;20028;-70
2024/03/31 11:59:21;;;;;;;49.00;6.90;;;;;;;;;;5089438;28;20024;-70
2024/03/31 12:01:58;;;;;;;54.45;6.22;;;;;;;;;;5089331;28;20056;-72
2024/03/31 12:04:25;;;;;;;42.05;5.13;;;;;;;;;;5089542;28;20364;-69
2024/03/31 12:06:53;;;;;;;54.53;7.03;;;;;;;;;;5089545;28;20078;-69
2024/03/31 12:09:19;;;;;;;52.97;5.88;;;;;;;;;;5073402;28;20047;-69
2024/03/31 12:11:45;;;;;;;32.63;4.97;;;;;;;;;;5058630;28;20052;-70
2024/03/31 12:14:13;;;;;;;57.05;7.70;;;;;;;;;;5093328;28;20035;-69
2024/03/31 12:16:44;;;;;;;59.58;7.53;;;;;;;;;;5075458;28;20027;-71
2024/03/31 12:19:12;;;;;;;48.63;5.97;;;;;;;;;;5075007;28;20048;-69
2024/03/31 12:21:38;;;;;;;46.38;5.72;;;;;;;;;;5075169;28;20380;-72
2024/03/31 12:24:05;;;;;;;69.25;7.93;;;;;;;;;;5074767;28;20032;-69
2024/03/31 12:26:31;;;;;;;55.22;7.78;;;;;;;;;;5093280;28;20478;-70
2024/03/31 12:28:57;;;;;;;60.80;8.00;;;;;;;;;;5074586;28;20024;-70
2024/03/31 12:31:24;;;;;;;63.97;8.35;;;;;;;;;;5074798;28;20504;-70
2024/03/31 12:33:50;;;;;;;52.38;6.53;;;;;;;;;;5057932;28;20119;-68
2024/03/31 12:36:18;;;;;;;51.30;7.05;;;;;;;;;;5092868;28;20052;-68
2024/03/31 12:38:44;;;;;;;73.10;7.07;;;;;;;;;;5092951;28;20119;-69
2024/03/31 12:41:10;;;;;;;55.78;7.82;;;;;;;;;;5074317;28;20038;-69
2024/03/31 12:43:36;;;;;;;60.90;7.60;;;;;;;;;;5093190;28;20024;-70
2024/03/31 12:46:12;;;;;;;54.75;7.93;;;;;;;;;;5074394;28;20031;-70
2024/03/31 12:48:38;;;;;;;57.05;8.45;;;;;;;;;;5074372;28;20076;-69
2024/03/31 12:51:04;;;;;;;64.38;7.93;;;;;;;;;;5074169;28;20182;-71
2024/03/31 12:53:30;;;;;;;52.72;6.78;;;;;;;;;;5092569;28;20605;-69
2024/03/31 12:55:57;;;;;;;53.53;7.95;;;;;;;;;;5092017;28;20123;-70
2024/03/31 12:58:22;;;;;;;64.68;8.05;;;;;;;;;;5074301;28;20024;-70
2024/03/31 13:00:48;;;;;;;62.40;6.75;;;;;;;;;;5092272;28;20107;-74
2024/03/31 13:03:17;;;;;;;51.78;6.00;;;;;;;;;;5074116;28;20501;-69
2024/03/31 13:05:43;;;;;;;52.80;6.85;;;;;;;;;;5092263;28;20089;-70
2024/03/31 13:08:10;;;;;;;60.08;6.80;;;;;;;;;;5091839;28;20023;-70
2024/03/31 13:10:37;;;;;;;55.00;6.63;;;;;;;;;;5074031;28;20042;-70
2024/03/31 13:13:03;;;;;;;73.32;7.88;;;;;;;;;;5073866;28;20023;-69
2024/03/31 13:15:32;;;;;;;72.07;10.10;;;;;;;;;;5073777;28;20097;-70
2024/03/31 13:17:58;;;;;;;54.72;7.05;;;;;;;;;;5073701;28;20046;-71
2024/03/31 13:20:24;;;;;;;52.20;7.32;;;;;;;;;;5090844;28;20019;-70
2024/03/31 13:22:50;;;;;;;57.58;7.93;;;;;;;;;;5091768;28;20032;-72
2024/03/31 13:25:16;;;;;;;57.00;7.43;;;;;;;;;;5074117;28;20039;-72
2024/03/31 13:27:41;;;;;;;56.70;7.88;;;;;;;;;;5073805;28;20123;-70
2024/03/31 13:30:07;;;;;;;61.45;7.70;;;;;;;;;;5092121;28;20108;-70
2024/03/31 13:32:34;;;;;;;59.85;8.32;;;;;;;;;;5092528;28;20074;-69
2024/03/31 13:35:00;;;;;;;61.45;8.57;;;;;;;;;;5075321;28;20050;-69
2024/03/31 13:37:27;;;;;;;55.00;7.15;;;;;;;;;;5093695;28;20032;-68
2024/03/31 13:39:52;;;;;;;67.25;6.85;;;;;;;;;;5093501;28;20046;-69
2024/03/31 13:42:18;;;;;;;58.70;7.55;;;;;;;;;;5075722;28;20024;-69
2024/03/31 13:44:45;;;;;;;56.83;7.60;;;;;;;;;;5094070;28;20031;-68
2024/03/31 13:47:10;;;;;;;76.55;8.45;;;;;;;;;;5093092;28;20098;-69
2024/03/31 13:49:36;;;;;;;57.60;8.18;;;;;;;;;;5073757;28;20062;-70
2024/03/31 13:52:02;;;;;;;60.67;7.13;;;;;;;;;;5091310;28;20028;-70
2024/03/31 13:54:27;;;;;;;51.40;6.97;;;;;;;;;;5056676;28;20028;-68
2024/03/31 13:56:53;;;;;;;58.70;7.60;;;;;;;;;;5091260;28;20024;-70
2024/03/31 13:59:18;;;;;;;50.90;7.72;;;;;;;;;;5091321;28;20024;-72
2024/03/31 14:01:44;;;;;;;45.40;7.45;;;;;;;;;;5072605;28;20020;-70
2024/03/31 14:04:09;;;;;;;59.00;8.82;;;;;;;;;;5090671;28;20391;-69
2024/03/31 14:06:35;;;;;;;58.53;7.85;;;;;;;;;;5091353;28;20057;-68
2024/03/31 14:09:01;;;;;;;51.10;7.40;;;;;;;;;;5072187;28;20028;-70
2024/03/31 14:11:26;;;;;;;58.33;6.82;;;;;;;;;;5072601;28;20109;-72
2024/03/31 14:13:52;;;;;;;53.00;7.50;;;;;;;;;;5072883;28;20055;-73
2024/03/31 14:16:17;;;;;;;59.92;7.78;;;;;;;;;;5072667;28;20043;-71
2024/03/31 14:18:43;;;;;;;63.00;8.10;;;;;;;;;;5073067;28;20384;-69
2024/03/31 14:21:09;;;;;;;57.58;6.70;;;;;;;;;;5072552;28;20062;-69
2024/03/31 14:23:35;;;;;;;56.47;7.30;;;;;;;;;;5090872;28;20043;-70